createdAt,value
2018-03-26T00:00:41.382Z,32.27
2018-03-26T00:03:09.720Z,31.80
2018-03-26T00:05:38.066Z,29.20
2018-03-26T00:08:06.636Z,29.90
2018-03-26T00:10:35.751Z,30.47
2018-03-26T00:13:04.099Z,30.27
2018-03-26T00:15:32.450Z,32.00
2018-03-26T00:18:01.144Z,35.67
2018-03-26T00:20:29.534Z,30.97
2018-03-26T00:22:57.879Z,35.03
2018-03-26T00:25:27.797Z,28.90
2018-03-26T00:27:56.183Z,31.67
2018-03-26T00:30:24.749Z,35.40
2018-03-26T00:32:53.137Z,32.30
2018-03-26T00:35:21.498Z,35.57
2018-03-26T00:37:49.906Z,31.93
2018-03-26T00:40:18.316Z,31.37
2018-03-26T00:42:46.735Z,31.20
2018-03-26T00:45:15.087Z,32.87
2018-03-26T00:47:44.193Z,32.23
2018-03-26T00:50:13.316Z,31.70
2018-03-26T00:52:41.812Z,35.50
2018-03-26T00:55:10.179Z,34.30
2018-03-26T00:57:39.041Z,31.33
2018-03-26T01:00:07.579Z,32.80
2018-03-26T01:02:35.924Z,34.00
2018-03-26T01:05:04.888Z,34.77
2018-03-26T01:07:33.301Z,31.87
2018-03-26T01:10:01.739Z,33.40
2018-03-26T01:12:30.095Z,35.07
2018-03-26T01:14:58.731Z,37.67
2018-03-26T01:17:27.824Z,34.00
2018-03-26T01:19:56.324Z,32.60
2018-03-26T01:22:24.667Z,33.97
2018-03-26T01:24:53.772Z,34.80
2018-03-26T01:27:22.877Z,33.33
2018-03-26T01:29:51.277Z,36.53
2018-03-26T01:32:19.653Z,36.00
2018-03-26T01:34:48.021Z,37.20
2018-03-26T01:37:16.403Z,37.23
2018-03-26T01:39:44.699Z,40.30
2018-03-26T01:42:13.046Z,40.93
2018-03-26T01:44:42.392Z,43.23
2018-03-26T01:47:10.853Z,42.10
2018-03-26T01:49:39.230Z,38.10
2018-03-26T01:52:07.602Z,44.20
2018-03-26T01:54:35.956Z,42.10
2018-03-26T01:57:05.062Z,43.10
2018-03-26T01:59:34.904Z,40.40
2018-03-26T02:02:03.248Z,44.13
2018-03-26T02:04:31.696Z,45.27
2018-03-26T02:07:00.041Z,45.37
2018-03-26T02:09:28.389Z,43.00
2018-03-26T02:11:57.510Z,46.63
2018-03-26T02:14:25.841Z,47.13
2018-03-26T02:16:54.982Z,52.20
2018-03-26T02:19:23.496Z,48.30
2018-03-26T02:21:51.858Z,50.70
2018-03-26T02:24:20.229Z,52.10
2018-03-26T02:26:48.602Z,51.80
2018-03-26T02:29:17.120Z,53.23
2018-03-26T02:31:45.470Z,62.70
2018-03-26T02:34:13.851Z,60.10
2018-03-26T02:36:42.202Z,62.50
2018-03-26T02:39:11.441Z,56.77
2018-03-26T02:41:39.837Z,59.40
2018-03-26T02:44:08.200Z,58.33
2018-03-26T02:46:37.554Z,61.73
2018-03-26T02:49:05.878Z,60.20
2018-03-26T02:51:34.225Z,61.80
2018-03-26T02:54:02.596Z,64.37
2018-03-26T02:56:30.946Z,56.93
2018-03-26T02:58:59.379Z,58.63
2018-03-26T03:01:27.713Z,60.03
2018-03-26T03:03:56.142Z,60.73
2018-03-26T03:06:24.524Z,61.00
2018-03-26T03:08:52.873Z,54.90
2018-03-26T03:11:21.975Z,54.60
2018-03-26T03:13:50.348Z,59.23
2018-03-26T03:16:19.496Z,60.57
2018-03-26T03:18:47.831Z,59.30
2018-03-26T03:21:16.185Z,58.10
2018-03-26T03:23:44.598Z,60.60
2018-03-26T03:26:12.971Z,62.63
2018-03-26T03:28:41.321Z,54.17
2018-03-26T03:31:09.858Z,58.47
2018-03-26T03:33:38.203Z,55.80
2018-03-26T03:36:07.328Z,57.00
2018-03-26T03:38:35.930Z,60.30
2018-03-26T03:41:04.295Z,60.10
2018-03-26T03:43:32.643Z,61.40
2018-03-26T03:46:00.981Z,63.33
2018-03-26T03:48:29.335Z,63.57
2018-03-26T03:50:57.728Z,65.30
2018-03-26T03:53:26.002Z,58.03
2018-03-26T03:55:54.353Z,63.30
2018-03-26T03:58:22.687Z,61.70
2018-03-26T04:00:51.124Z,66.27
2018-03-26T04:03:19.459Z,66.37
2018-03-26T04:05:48.609Z,69.17
2018-03-26T04:08:16.985Z,67.67
2018-03-26T04:10:45.336Z,66.40
2018-03-26T04:13:13.712Z,65.47
2018-03-26T04:15:42.808Z,64.40
2018-03-26T04:18:11.160Z,66.83
2018-03-26T04:20:39.512Z,66.43
2018-03-26T04:23:07.853Z,66.03
2018-03-26T04:25:36.182Z,68.73
2018-03-26T04:28:04.568Z,71.60
2018-03-26T04:30:32.911Z,77.37
2018-03-26T04:33:01.279Z,76.60
2018-03-26T04:35:29.631Z,71.93
2018-03-26T04:37:58.831Z,65.83
2018-03-26T04:40:27.517Z,71.80
2018-03-26T04:42:56.039Z,72.43
2018-03-26T04:45:24.402Z,71.07
2018-03-26T04:47:52.848Z,75.60
2018-03-26T04:50:22.012Z,75.70
2018-03-26T04:52:51.093Z,78.30
2018-03-26T04:55:19.439Z,80.73
2018-03-26T04:57:47.836Z,77.57
2018-03-26T05:00:17.395Z,72.17
2018-03-26T05:02:45.748Z,69.30
2018-03-26T05:05:14.093Z,78.17
2018-03-26T05:07:42.474Z,73.83
2018-03-26T05:10:10.846Z,75.80
2018-03-26T05:12:39.183Z,77.97
2018-03-26T05:15:07.526Z,83.07
2018-03-26T05:17:35.895Z,82.73
2018-03-26T05:20:04.285Z,91.30
2018-03-26T05:22:32.622Z,81.53
2018-03-26T05:25:01.752Z,73.23
2018-03-26T05:27:30.075Z,83.03
2018-03-26T05:29:58.423Z,86.93
2018-03-26T05:32:26.776Z,82.63
2018-03-26T05:34:55.136Z,93.43
2018-03-26T05:37:23.502Z,90.73
2018-03-26T05:39:51.838Z,94.30
2018-03-26T05:42:20.189Z,87.87
2018-03-26T05:44:49.225Z,91.27
2018-03-26T05:47:17.564Z,89.10
2018-03-26T05:49:45.907Z,89.30
2018-03-26T05:52:14.269Z,87.87
2018-03-26T05:54:42.625Z,93.03
2018-03-26T05:57:11.056Z,95.27
2018-03-26T05:59:40.184Z,89.47
2018-03-26T06:02:09.530Z,90.07
2018-03-26T06:04:37.809Z,91.10
2018-03-26T06:07:06.247Z,96.90
2018-03-26T06:09:34.584Z,98.00
2018-03-26T06:12:02.916Z,103.77
2018-03-26T06:14:31.277Z,94.53
2018-03-26T06:17:10.654Z,101.23
2018-03-26T06:19:38.993Z,100.20
2018-03-26T06:22:07.617Z,106.00
2018-03-26T06:24:35.973Z,101.93
2018-03-26T06:27:04.428Z,94.80
2018-03-26T06:29:33.374Z,96.13
2018-03-26T06:32:01.733Z,99.60
2018-03-26T06:34:30.092Z,100.03
2018-03-26T06:39:57.656Z,114.65
2018-03-26T06:42:26.000Z,97.67
2018-03-26T06:44:54.389Z,106.70
2018-03-26T06:47:22.822Z,105.80
2018-03-26T06:49:51.221Z,100.77
2018-03-26T06:52:19.573Z,100.17
2018-03-26T06:54:48.481Z,97.67
2018-03-26T06:57:16.849Z,101.43
2018-03-26T06:59:45.192Z,103.27
2018-03-26T07:02:14.321Z,100.47
2018-03-26T07:04:42.673Z,109.17
2018-03-26T07:07:11.041Z,102.07
2018-03-26T07:09:40.187Z,104.03
2018-03-26T07:12:08.500Z,99.47
2018-03-26T07:14:36.858Z,103.37
2018-03-26T07:17:05.209Z,104.60
2018-03-26T07:19:33.560Z,95.37
2018-03-26T07:22:02.667Z,102.73
2018-03-26T07:24:31.020Z,92.80
2018-03-26T07:26:59.372Z,94.20
2018-03-26T07:29:27.808Z,93.67
2018-03-26T07:31:56.157Z,90.73
2018-03-26T07:34:24.516Z,91.33
2018-03-26T07:36:52.863Z,91.77
2018-03-26T07:39:21.202Z,92.97
2018-03-26T07:41:50.322Z,90.57
2018-03-26T07:44:18.765Z,89.00
2018-03-26T07:46:47.182Z,86.63
2018-03-26T07:49:16.742Z,82.87
2018-03-26T07:51:45.092Z,87.43
2018-03-26T07:54:13.419Z,89.77
2018-03-26T07:56:41.781Z,87.10
2018-03-26T07:59:10.125Z,81.47
2018-03-26T08:01:38.509Z,77.30
2018-03-26T08:04:06.847Z,76.07
2018-03-26T08:06:36.121Z,84.37
2018-03-26T08:09:04.468Z,81.33
2018-03-26T08:11:32.813Z,81.80
2018-03-26T08:14:01.944Z,90.43
2018-03-26T08:16:30.284Z,79.97
2018-03-26T08:18:58.671Z,80.37
2018-03-26T08:21:27.018Z,83.87
2018-03-26T08:23:55.368Z,78.63
2018-03-26T08:26:23.702Z,68.33
2018-03-26T08:28:52.050Z,66.27
2018-03-26T08:31:20.384Z,64.23
2018-03-26T08:33:48.741Z,58.87
2018-03-26T08:36:17.088Z,60.03
2018-03-26T08:38:45.424Z,63.30
2018-03-26T08:41:13.775Z,72.43
2018-03-26T08:43:42.293Z,69.27
2018-03-26T08:46:10.648Z,70.73
2018-03-26T08:48:38.984Z,56.90
2018-03-26T08:51:07.327Z,59.17
2018-03-26T08:53:35.673Z,59.00
2018-03-26T08:56:04.796Z,59.43
2018-03-26T08:58:33.122Z,59.87
2018-03-26T09:01:01.608Z,54.67
2018-03-26T09:03:29.948Z,64.13
2018-03-26T09:05:58.292Z,55.47
2018-03-26T09:08:26.680Z,62.00
2018-03-26T09:10:55.028Z,64.77
2018-03-26T09:13:24.152Z,69.30
2018-03-26T09:15:52.505Z,66.00
2018-03-26T09:18:21.637Z,67.93
2018-03-26T09:20:49.996Z,62.80
2018-03-26T09:23:19.106Z,55.07
2018-03-26T09:25:47.503Z,52.27
2018-03-26T09:28:15.825Z,47.17
2018-03-26T09:30:44.944Z,45.50
2018-03-26T09:33:13.300Z,45.57
2018-03-26T09:35:41.753Z,44.90
2018-03-26T09:38:10.218Z,44.73
2018-03-26T09:40:38.539Z,43.90
2018-03-26T09:43:06.899Z,46.67
2018-03-26T09:45:35.252Z,46.27
2018-03-26T09:48:03.583Z,42.07
2018-03-26T09:50:32.759Z,39.13
2018-03-26T09:53:01.105Z,44.83
2018-03-26T09:55:29.547Z,40.10
2018-03-26T09:57:58.684Z,37.30
2018-03-26T10:00:32.637Z,37.87
2018-03-26T10:03:00.990Z,45.27
2018-03-26T10:05:29.360Z,46.07
2018-03-26T10:07:57.725Z,43.47
2018-03-26T10:10:26.314Z,43.03
2018-03-26T10:12:54.694Z,37.87
2018-03-26T10:15:23.018Z,37.57
2018-03-26T10:17:51.365Z,39.67
2018-03-26T10:20:19.708Z,37.77
2018-03-26T10:22:48.060Z,41.70
2018-03-26T10:25:17.213Z,38.63
2018-03-26T10:27:45.533Z,42.83
2018-03-26T10:30:14.743Z,37.00
2018-03-26T10:32:43.873Z,39.43
2018-03-26T10:35:12.235Z,39.77
2018-03-26T10:37:40.607Z,45.30
2018-03-26T10:40:09.092Z,50.87
2018-03-26T10:42:38.204Z,47.13
2018-03-26T10:45:06.562Z,49.63
2018-03-26T10:47:34.989Z,52.63
2018-03-26T10:50:03.449Z,50.93
2018-03-26T10:52:31.796Z,48.10
2018-03-26T10:55:00.157Z,49.73
2018-03-26T10:57:28.515Z,50.77
2018-03-26T10:59:56.969Z,45.03
2018-03-26T11:02:25.320Z,40.70
2018-03-26T11:04:53.693Z,43.47
2018-03-26T11:07:22.041Z,45.97
2018-03-26T11:09:50.381Z,42.37
2018-03-26T11:12:18.752Z,43.33
2018-03-26T11:14:47.285Z,44.60
2018-03-26T11:17:15.648Z,44.87
2018-03-26T11:19:44.047Z,49.93
2018-03-26T11:22:12.420Z,48.00
2018-03-26T11:24:40.771Z,49.03
2018-03-26T11:27:09.120Z,47.20
2018-03-26T11:29:37.502Z,49.63
2018-03-26T11:32:05.835Z,43.63
2018-03-26T11:34:34.185Z,48.70
2018-03-26T11:37:02.554Z,46.50
2018-03-26T11:39:30.918Z,46.93
2018-03-26T11:41:59.256Z,47.27
2018-03-26T11:44:27.601Z,47.97
2018-03-26T11:46:55.964Z,43.43
2018-03-26T11:49:24.340Z,40.50
2018-03-26T11:51:53.293Z,33.13
2018-03-26T11:54:22.413Z,37.53
2018-03-26T11:56:50.764Z,39.57
2018-03-26T11:59:19.118Z,35.57
2018-03-26T12:01:47.457Z,39.73
2018-03-26T12:04:15.834Z,38.83
2018-03-26T12:06:44.185Z,31.83
2018-03-26T12:09:13.313Z,32.83
2018-03-26T12:11:41.673Z,35.73
2018-03-26T12:14:10.805Z,34.40
2018-03-26T12:16:39.220Z,39.37
2018-03-26T12:19:07.574Z,37.43
2018-03-26T12:21:35.988Z,35.70
2018-03-26T12:24:16.095Z,37.07
2018-03-26T12:26:44.463Z,37.90
2018-03-26T12:32:14.888Z,36.63
2018-03-26T12:34:55.876Z,34.80
2018-03-26T12:37:24.252Z,34.57
2018-03-26T12:39:52.591Z,39.03
2018-03-26T12:42:20.932Z,34.47
2018-03-26T12:45:01.169Z,33.70
2018-03-26T12:47:29.667Z,36.47
2018-03-26T12:49:58.045Z,31.43
2018-03-26T12:52:38.243Z,30.37
2018-03-26T12:55:06.589Z,40.97
2018-03-26T12:57:46.945Z,40.17
2018-03-26T13:00:15.280Z,32.27
2018-03-26T13:02:43.655Z,33.80
2018-03-26T13:05:12.000Z,35.07
2018-03-26T13:07:40.369Z,32.13
2018-03-26T13:10:08.711Z,35.30
2018-03-26T13:12:37.828Z,32.03
2018-03-26T13:15:06.164Z,36.77
2018-03-26T13:17:34.609Z,38.27
2018-03-26T13:20:02.959Z,31.20
2018-03-26T13:22:32.082Z,34.97
2018-03-26T13:25:00.452Z,30.40
2018-03-26T13:27:28.915Z,31.87
2018-03-26T13:29:58.123Z,31.60
2018-03-26T13:32:26.468Z,31.20
2018-03-26T13:34:55.684Z,29.33
2018-03-26T13:37:24.804Z,28.57
2018-03-26T13:39:53.137Z,30.20
2018-03-26T13:42:21.508Z,32.47
2018-03-26T13:44:49.823Z,30.83
2018-03-26T13:47:18.184Z,28.80
2018-03-26T13:49:47.312Z,27.43
2018-03-26T13:52:15.663Z,34.13
2018-03-26T13:54:44.765Z,34.63
2018-03-26T13:57:13.181Z,33.27
2018-03-26T13:59:41.549Z,31.63
2018-03-26T14:02:09.919Z,32.33
2018-03-26T14:04:38.623Z,29.03
2018-03-26T14:07:06.959Z,27.33
2018-03-26T14:09:47.961Z,28.33
2018-03-26T14:12:28.306Z,27.17
2018-03-26T14:15:08.523Z,28.80
2018-03-26T14:17:48.854Z,28.17
2018-03-26T14:20:17.209Z,27.87
2018-03-26T14:22:45.551Z,25.23
2018-03-26T14:25:13.925Z,22.20
2018-03-26T14:27:42.379Z,20.60
2018-03-26T14:30:10.726Z,22.77
2018-03-26T14:32:39.070Z,23.77
2018-03-26T14:38:12.346Z,28.93
2018-03-26T14:40:40.712Z,28.00
2018-03-26T14:43:09.066Z,27.70
2018-03-26T14:45:38.301Z,29.90
2018-03-26T14:48:06.635Z,25.97
2018-03-26T14:50:35.741Z,30.27
2018-03-26T14:53:04.113Z,31.17
2018-03-26T14:55:33.216Z,30.23
2018-03-26T14:58:01.662Z,28.73
2018-03-26T15:00:30.003Z,27.53
2018-03-26T15:02:58.448Z,22.30
2018-03-26T15:05:27.552Z,22.50
2018-03-26T15:07:56.670Z,26.17
2018-03-26T15:10:25.013Z,18.33
2018-03-26T15:12:54.133Z,16.10
2018-03-26T15:15:22.487Z,21.97
2018-03-26T15:17:50.814Z,15.77
2018-03-26T15:20:19.248Z,13.57
2018-03-26T15:22:47.565Z,14.30
2018-03-26T15:25:15.906Z,16.73
2018-03-26T15:27:45.029Z,15.27
2018-03-26T15:30:13.373Z,17.53
2018-03-26T15:32:41.756Z,21.50
2018-03-26T15:35:10.126Z,21.57
2018-03-26T15:37:38.484Z,22.43
2018-03-26T15:40:06.810Z,34.60
2018-03-26T15:42:35.174Z,25.23
2018-03-26T15:45:04.285Z,25.87
2018-03-26T15:47:32.694Z,23.83
2018-03-26T15:50:01.126Z,24.10
2018-03-26T15:52:29.518Z,19.43
2018-03-26T15:54:57.863Z,18.60
2018-03-26T15:57:26.210Z,18.70
2018-03-26T15:59:54.555Z,18.97
2018-03-26T16:02:23.696Z,18.53
2018-03-26T16:04:52.048Z,17.43
2018-03-26T16:07:20.397Z,16.20
2018-03-26T16:09:49.536Z,19.47
2018-03-26T16:12:18.457Z,18.57
2018-03-26T16:14:46.920Z,16.47
2018-03-26T16:17:15.284Z,17.60
2018-03-26T16:19:43.645Z,18.33
2018-03-26T16:22:12.774Z,19.37
2018-03-26T16:24:41.118Z,18.03
2018-03-26T16:27:10.235Z,19.27
2018-03-26T16:29:38.661Z,22.73
2018-03-26T16:32:06.987Z,23.03
2018-03-26T16:34:35.328Z,25.27
2018-03-26T16:37:03.926Z,22.40
2018-03-26T16:39:33.067Z,23.63
2018-03-26T16:45:01.109Z,23.30
2018-03-26T16:47:29.484Z,24.23
2018-03-26T16:49:57.829Z,23.80
2018-03-26T16:52:26.213Z,23.53
2018-03-26T16:54:54.594Z,23.47
2018-03-26T16:57:23.173Z,22.90
2018-03-26T16:59:51.538Z,26.27
2018-03-26T17:02:24.566Z,24.67
2018-03-26T17:04:52.988Z,26.07
2018-03-26T17:07:21.332Z,27.93
2018-03-26T17:09:49.776Z,29.60
2018-03-26T17:12:18.108Z,26.23
2018-03-26T17:14:47.223Z,28.47
2018-03-26T17:17:15.623Z,25.83
2018-03-26T17:19:44.034Z,25.03
2018-03-26T17:22:12.379Z,28.37
2018-03-26T17:24:40.744Z,27.77
2018-03-26T17:27:09.109Z,26.43
2018-03-26T17:29:38.308Z,24.10
2018-03-26T17:32:06.638Z,28.83
2018-03-26T17:34:34.983Z,27.73
2018-03-26T17:37:03.403Z,29.20
2018-03-26T17:39:32.043Z,31.40
2018-03-26T17:42:00.367Z,49.60
2018-03-26T17:44:28.735Z,28.17
2018-03-26T17:46:57.200Z,24.63
2018-03-26T17:49:25.588Z,29.40
2018-03-26T17:51:53.936Z,28.43
2018-03-26T17:54:22.550Z,28.03
2018-03-26T17:56:50.889Z,24.93
2018-03-26T17:59:19.229Z,25.07
2018-03-26T18:01:47.603Z,26.47
2018-03-26T18:04:15.955Z,25.47
2018-03-26T18:06:44.348Z,29.70
2018-03-26T18:09:12.688Z,28.87
2018-03-26T18:11:41.211Z,25.27
2018-03-26T18:14:09.559Z,25.80
2018-03-26T18:16:37.903Z,48.10
2018-03-26T18:19:06.256Z,36.37
2018-03-26T18:21:34.597Z,26.47
2018-03-26T18:24:02.955Z,28.70
2018-03-26T18:26:32.397Z,28.53
2018-03-26T18:29:00.917Z,27.43
2018-03-26T18:31:30.250Z,28.73
2018-03-26T18:33:58.608Z,30.53
2018-03-26T18:36:27.268Z,27.00
2018-03-26T18:38:55.674Z,28.80
2018-03-26T18:41:24.808Z,25.43
2018-03-26T18:43:53.154Z,27.50
2018-03-26T18:46:22.305Z,28.57
2018-03-26T18:48:50.818Z,22.50
2018-03-26T18:51:19.211Z,21.27
2018-03-26T18:53:47.537Z,23.80
2018-03-26T18:56:15.920Z,22.10
2018-03-26T18:58:44.322Z,22.33
2018-03-26T19:01:12.664Z,20.97
2018-03-26T19:03:41.125Z,21.77
2018-03-26T19:06:09.537Z,24.20
2018-03-26T19:08:37.897Z,24.00
2018-03-26T19:11:06.505Z,25.70
2018-03-26T19:13:35.133Z,23.53
2018-03-26T19:16:03.503Z,21.40
2018-03-26T19:18:31.921Z,19.47
2018-03-26T19:21:00.293Z,21.03
2018-03-26T19:23:28.685Z,24.70
2018-03-26T19:28:32.398Z,22.40
2018-03-26T19:31:00.793Z,24.20
2018-03-26T19:33:29.137Z,22.80
2018-03-26T19:35:57.515Z,24.33
2018-03-26T19:38:25.945Z,24.73
2018-03-26T19:40:54.295Z,25.27
2018-03-26T19:43:22.692Z,24.87
2018-03-26T19:45:51.082Z,24.67
2018-03-26T19:48:19.454Z,29.67
2018-03-26T19:50:47.820Z,25.17
2018-03-26T19:53:16.285Z,24.13
2018-03-26T19:55:45.419Z,22.53
2018-03-26T19:58:13.909Z,23.73
2018-03-26T20:00:42.985Z,25.50
2018-03-26T20:03:11.344Z,27.00
2018-03-26T20:05:39.770Z,24.90
2018-03-26T20:08:08.141Z,25.77
2018-03-26T20:10:36.552Z,30.40
2018-03-26T20:13:05.039Z,26.37
2018-03-26T20:15:33.464Z,28.73
2018-03-26T20:18:01.978Z,30.50
2018-03-26T20:20:30.314Z,24.73
2018-03-26T20:22:58.683Z,30.23
2018-03-26T20:25:28.000Z,29.80
2018-03-26T20:27:56.558Z,31.20
2018-03-26T20:30:25.666Z,30.20
2018-03-26T20:32:54.376Z,28.03
2018-03-26T20:35:22.736Z,29.07
2018-03-26T20:37:51.202Z,28.23
2018-03-26T20:40:19.549Z,33.17
2018-03-26T20:42:47.905Z,31.97
2018-03-26T20:45:16.293Z,34.57
2018-03-26T20:47:44.732Z,35.43
2018-03-26T20:50:13.163Z,33.20
2018-03-26T20:52:41.516Z,34.67
2018-03-26T20:55:10.115Z,37.53
2018-03-26T20:57:38.810Z,35.80
2018-03-26T21:00:07.587Z,37.00
2018-03-26T21:02:35.949Z,33.90
2018-03-26T21:05:04.483Z,38.43
2018-03-26T21:07:32.862Z,34.43
2018-03-26T21:10:01.300Z,36.07
2018-03-26T21:12:29.659Z,30.93
2018-03-26T21:14:58.053Z,33.97
2018-03-26T21:17:26.436Z,93.03
2018-03-26T21:19:54.807Z,43.10
2018-03-26T21:22:23.197Z,34.40
2018-03-26T21:24:51.730Z,33.37
2018-03-26T21:27:20.989Z,37.63
2018-03-26T21:29:49.394Z,33.57
2018-03-26T21:32:17.764Z,35.03
2018-03-26T21:34:46.243Z,34.60
2018-03-26T21:37:14.652Z,35.73
2018-03-26T21:39:43.021Z,37.33
2018-03-26T21:42:11.527Z,35.40
2018-03-26T21:44:40.048Z,37.10
2018-03-26T21:47:08.532Z,34.40
2018-03-26T21:49:37.025Z,35.20
2018-03-26T21:52:05.819Z,34.87
2018-03-26T21:54:34.404Z,32.73
2018-03-26T21:57:02.881Z,35.47
2018-03-26T21:59:31.236Z,32.70
2018-03-26T22:01:59.660Z,35.53
2018-03-26T22:04:28.067Z,34.40
2018-03-26T22:06:57.350Z,36.10
2018-03-26T22:09:26.012Z,32.07
2018-03-26T22:11:54.378Z,33.50
2018-03-26T22:14:22.717Z,35.47
2018-03-26T22:16:51.205Z,31.10
2018-03-26T22:19:19.595Z,31.37
2018-03-26T22:21:47.967Z,32.33
2018-03-26T22:24:16.426Z,28.00
2018-03-26T22:26:45.841Z,33.43
2018-03-26T22:29:14.972Z,29.83
2018-03-26T22:31:43.617Z,26.37
2018-03-26T22:34:12.863Z,28.40
2018-03-26T22:36:41.294Z,30.80
2018-03-26T22:39:09.915Z,29.13
2018-03-26T22:41:38.267Z,28.40
2018-03-26T22:44:06.911Z,30.33
2018-03-26T22:46:35.293Z,27.30
2018-03-26T22:49:03.804Z,29.50
2018-03-26T22:51:32.187Z,30.40
2018-03-26T22:54:01.508Z,29.80
2018-03-26T22:56:29.902Z,28.73
2018-03-26T22:58:58.323Z,31.40
2018-03-26T23:01:27.598Z,33.43
2018-03-26T23:03:56.072Z,32.53
2018-03-26T23:06:24.489Z,31.10
2018-03-26T23:08:52.927Z,31.37
2018-03-26T23:11:21.496Z,31.63
2018-03-26T23:13:49.883Z,27.70
2018-03-26T23:16:18.515Z,32.03
2018-03-26T23:18:46.889Z,32.30
2018-03-26T23:21:16.142Z,29.70
2018-03-26T23:23:44.756Z,33.03
2018-03-26T23:26:13.405Z,35.10
2018-03-26T23:28:42.605Z,37.87
2018-03-26T23:31:11.195Z,34.37
2018-03-26T23:33:39.545Z,35.83
2018-03-26T23:36:08.142Z,30.87
2018-03-26T23:38:36.568Z,36.07
2018-03-26T23:41:04.896Z,34.27
2018-03-26T23:43:33.307Z,38.07
2018-03-26T23:46:02.127Z,34.93
2018-03-26T23:48:30.506Z,38.00
2018-03-26T23:50:58.882Z,34.53
2018-03-26T23:53:27.347Z,35.60
2018-03-26T23:55:55.820Z,36.20
2018-03-26T23:58:24.197Z,39.47
